Time;durP1;ratioP1;P1;durP2;ratioP2;P2;SDS_P1;SDS_P2;PMS_P1;PMS_P2;Temp;Humidity;BMP_temperature;BMP_pressure;BME280_temperature;BME280_humidity;BME280_pressure;Samples;Min_cycle;Max_cycle;Signal;HPM_P1;HPM_P2
2022/05/11 00:01:29;;;;;;;6.60;3.97;;;17.60;99.90;;;;;;4981306;28;20105;-76
2022/05/11 00:04:15;;;;;;;6.80;4.20;;;17.40;99.90;;;;;;4995456;28;20069;-79
2022/05/11 00:07:01;;;;;;;8.77;4.55;;;17.20;99.90;;;;;;4981257;28;20045;-77
2022/05/11 00:09:47;;;;;;;7.30;4.55;;;17.20;99.90;;;;;;4980481;28;20412;-76
2022/05/11 00:12:35;;;;;;;7.60;4.50;;;17.30;99.90;;;;;;4995112;28;20113;-78
2022/05/11 00:15:23;;;;;;;8.50;4.53;;;17.50;99.90;;;;;;4991107;28;20143;-80
2022/05/11 00:18:10;;;;;;;10.45;4.50;;;16.90;99.90;;;;;;5000423;28;20167;-80
2022/05/11 00:20:57;;;;;;;8.05;4.72;;;16.80;99.90;;;;;;5013937;28;20052;-77
2022/05/11 00:23:42;;;;;;;6.90;4.32;;;17.20;99.90;;;;;;4999738;28;20077;-77
2022/05/11 00:26:28;;;;;;;8.45;4.53;;;17.20;99.90;;;;;;5014446;28;20056;-79
2022/05/11 00:29:14;;;;;;;7.20;4.60;;;17.10;99.90;;;;;;5016620;28;20053;-79
2022/05/11 00:32:00;;;;;;;8.75;5.40;;;17.00;99.90;;;;;;5018753;28;20108;-73
2022/05/11 00:34:46;;;;;;;9.18;4.45;;;17.00;99.90;;;;;;5016473;28;20057;-74
2022/05/11 00:37:32;;;;;;;9.50;4.78;;;17.00;99.90;;;;;;5011236;28;20040;-74
2022/05/11 00:40:20;;;;;;;7.97;5.82;;;16.90;99.90;;;;;;5003055;28;20052;-78
2022/05/11 00:43:07;;;;;;;9.85;5.20;;;16.90;99.90;;;;;;5016644;28;20499;-78
2022/05/11 00:45:57;;;;;;;11.32;5.82;;;17.00;99.90;;;;;;5013132;28;20184;-76
2022/05/11 00:51:57;;;;;;;14.10;7.85;;;17.00;99.90;;;;;;5014188;28;20146;-76
2022/05/11 00:54:57;;;;;;;17.35;8.68;;;16.90;99.90;;;;;;5013596;28;20049;-76
2022/05/11 00:57:57;;;;;;;21.00;10.27;;;16.90;99.90;;;;;;5014635;28;20053;-79
2022/05/11 01:00:44;;;;;;;23.27;11.50;;;16.70;99.90;;;;;;5013744;28;20409;-77
2022/05/11 01:03:38;;;;;;;16.45;9.98;;;16.60;99.90;;;;;;5014398;28;20057;-79
2022/05/11 01:06:24;;;;;;;19.40;9.43;;;16.50;99.90;;;;;;5014384;28;20088;-82
2022/05/11 01:09:11;;;;;;;23.20;9.68;;;16.40;99.90;;;;;;5014205;28;20100;-83
2022/05/11 01:12:00;;;;;;;16.02;8.35;;;16.30;99.90;;;;;;4999707;28;20060;-85
2022/05/11 01:14:52;;;;;;;15.57;8.57;;;16.20;99.90;;;;;;4999250;28;20053;-84
2022/05/11 01:17:39;;;;;;;17.90;8.55;;;16.40;99.90;;;;;;4999342;28;20104;-81
2022/05/11 01:20:30;;;;;;;13.38;7.70;;;16.50;99.90;;;;;;4999143;28;20104;-85
2022/05/11 01:23:44;;;;;;;11.48;7.07;;;16.50;99.90;;;;;;5014076;28;20654;-85
2022/05/11 01:26:33;;;;;;;9.45;5.30;;;16.50;99.90;;;;;;5014420;28;20393;-82
2022/05/11 01:29:19;;;;;;;11.90;6.25;;;16.40;99.90;;;;;;4999963;28;20057;-88
2022/05/11 01:32:05;;;;;;;10.05;6.20;;;16.40;99.90;;;;;;5015205;28;20179;-82
2022/05/11 01:34:58;;;;;;;8.80;5.18;;;16.30;99.90;;;;;;5009452;28;20053;-88
2022/05/11 01:38:08;;;;;;;10.65;5.78;;;16.10;99.90;;;;;;5000798;28;20539;-90
2022/05/11 01:40:54;;;;;;;9.52;5.03;;;16.20;99.90;;;;;;5012293;28;20049;-86
2022/05/11 01:43:40;;;;;;;9.23;5.30;;;16.10;99.90;;;;;;4999414;28;20060;-80
2022/05/11 01:46:27;;;;;;;10.13;5.75;;;16.00;99.90;;;;;;5013373;28;20057;-83
2022/05/11 01:49:13;;;;;;;8.85;6.03;;;15.90;99.90;;;;;;5013623;28;20041;-83
2022/05/11 01:51:59;;;;;;;11.73;6.40;;;15.80;99.90;;;;;;5012640;28;20052;-80
2022/05/11 01:54:46;;;;;;;15.60;6.07;;;15.70;99.90;;;;;;5012957;28;20064;-85
2022/05/11 01:57:32;;;;;;;9.55;5.25;;;15.70;99.90;;;;;;4998547;28;20500;-85
2022/05/11 02:00:18;;;;;;;13.35;5.68;;;15.70;99.90;;;;;;4998477;28;20053;-82
2022/05/11 02:03:04;;;;;;;10.75;5.93;;;15.80;99.90;;;;;;5013292;28;20508;-84
2022/05/11 02:08:56;;;;;;;9.10;6.00;;;15.90;99.90;;;;;;5012510;28;20048;-85
2022/05/11 02:11:42;;;;;;;9.38;6.05;;;15.80;99.90;;;;;;5012564;28;20069;-81
2022/05/11 02:14:28;;;;;;;8.80;5.68;;;15.90;99.90;;;;;;5012838;28;20131;-80
2022/05/11 02:17:14;;;;;;;8.90;5.47;;;15.80;99.90;;;;;;5012568;28;20140;-78
2022/05/11 02:20:01;;;;;;;9.55;6.13;;;15.40;99.90;;;;;;5012610;28;20076;-78
2022/05/11 02:22:48;;;;;;;11.82;6.07;;;15.50;99.90;;;;;;5012151;28;20551;-80
2022/05/11 02:25:34;;;;;;;9.02;5.70;;;15.50;99.90;;;;;;5012565;28;20061;-81
2022/05/11 02:28:23;;;;;;;10.20;6.05;;;15.50;99.90;;;;;;5012212;28;20064;-75
2022/05/11 02:31:09;;;;;;;11.35;6.38;;;15.70;99.90;;;;;;4997558;28;20185;-78
2022/05/11 02:33:55;;;;;;;10.18;6.30;;;15.70;99.90;;;;;;5012037;28;20464;-82
2022/05/11 02:36:42;;;;;;;11.18;5.90;;;15.60;99.90;;;;;;5012780;28;20053;-85
2022/05/11 02:39:27;;;;;;;9.90;6.28;;;15.50;99.90;;;;;;5013262;28;20045;-76
2022/05/11 02:42:17;;;;;;;8.90;5.47;;;15.60;99.90;;;;;;5013781;28;20536;-75
2022/05/11 02:45:04;;;;;;;14.70;5.82;;;15.70;99.90;;;;;;4999076;28;20057;-80
2022/05/11 02:47:52;;;;;;;15.98;8.65;;;15.40;99.90;;;;;;4998702;28;20512;-87
2022/05/11 02:50:42;;;;;;;15.82;8.60;;;15.30;99.90;;;;;;5013266;28;20512;-90
2022/05/11 02:53:29;;;;;;;16.30;7.38;;;15.60;99.90;;;;;;5013333;28;20132;-90
2022/05/11 02:56:15;;;;;;;13.48;6.90;;;15.50;99.90;;;;;;5012234;28;20551;-78
2022/05/11 02:59:01;;;;;;;11.20;6.93;;;15.30;99.90;;;;;;5013260;28;20097;-76
2022/05/11 03:01:51;;;;;;;11.85;7.28;;;15.20;99.90;;;;;;5013290;28;20167;-75
2022/05/11 03:04:37;;;;;;;11.23;7.18;;;15.10;99.90;;;;;;5012407;28;20061;-76
2022/05/11 03:07:23;;;;;;;11.63;7.05;;;15.10;99.90;;;;;;5012536;28;20057;-77
2022/05/11 03:10:10;;;;;;;17.92;8.00;;;14.90;99.90;;;;;;4997891;28;20060;-76
2022/05/11 03:12:55;;;;;;;14.43;7.95;;;15.20;99.90;;;;;;5012226;28;20048;-87
2022/05/11 03:15:42;;;;;;;9.57;6.78;;;15.20;99.90;;;;;;5012153;28;20053;-87
2022/05/11 03:18:28;;;;;;;10.00;6.60;;;15.00;99.90;;;;;;5012195;28;20478;-86
2022/05/11 03:21:14;;;;;;;10.02;5.97;;;14.80;99.90;;;;;;5012383;28;20433;-81
2022/05/11 03:24:00;;;;;;;9.52;5.80;;;15.00;99.90;;;;;;5012306;28;20068;-80
2022/05/11 03:26:46;;;;;;;11.07;6.25;;;14.80;99.90;;;;;;5011562;28;20508;-76
2022/05/11 03:29:32;;;;;;;12.60;6.93;;;14.80;99.90;;;;;;5012268;28;20061;-76
2022/05/11 03:35:23;;;;;;;10.15;6.68;;;14.90;99.90;;;;;;5012038;28;20135;-77
2022/05/11 03:38:09;;;;;;;13.93;6.57;;;15.00;99.90;;;;;;5011965;28;20056;-77
2022/05/11 03:40:55;;;;;;;11.88;5.45;;;14.90;99.90;;;;;;5012191;28;20056;-80
2022/05/11 03:43:41;;;;;;;12.07;6.07;;;14.80;99.90;;;;;;4996646;28;20068;-81
2022/05/11 03:46:32;;;;;;;9.18;5.50;;;14.70;99.90;;;;;;5011980;28;20053;-83
2022/05/11 03:49:18;;;;;;;7.60;5.30;;;14.70;99.90;;;;;;4997188;28;20092;-84
2022/05/11 03:52:04;;;;;;;8.85;5.18;;;14.70;99.90;;;;;;4996923;28;20072;-85
2022/05/11 03:54:55;;;;;;;9.18;5.70;;;14.90;99.90;;;;;;5011267;28;20079;-80
2022/05/11 03:57:42;;;;;;;10.85;5.30;;;14.80;99.90;;;;;;5014353;28;20165;-82
2022/05/11 04:00:27;;;;;;;9.18;4.88;;;14.80;99.90;;;;;;5000526;28;20523;-83
2022/05/11 04:03:13;;;;;;;9.95;5.60;;;15.00;99.90;;;;;;5015418;28;20057;-84
2022/05/11 04:05:59;;;;;;;10.88;5.18;;;15.00;99.90;;;;;;5014614;28;20184;-85
2022/05/11 04:08:45;;;;;;;10.35;5.25;;;15.00;99.90;;;;;;4999918;28;20116;-85
2022/05/11 04:11:32;;;;;;;8.63;5.57;;;15.10;99.90;;;;;;5014977;28;20756;-84
2022/05/11 04:14:17;;;;;;;14.02;6.00;;;15.10;99.90;;;;;;5000285;28;20619;-83
2022/05/11 04:17:03;;;;;;;14.32;6.57;;;15.00;99.90;;;;;;5014308;28;20421;-85
2022/05/11 04:19:49;;;;;;;12.80;5.80;;;15.00;99.90;;;;;;5000052;28;20096;-80
2022/05/11 04:22:35;;;;;;;11.20;7.30;;;15.00;99.90;;;;;;5014180;28;20052;-78
2022/05/11 04:25:23;;;;;;;10.00;5.28;;;14.90;99.90;;;;;;5014591;28;20053;-77
2022/05/11 04:28:12;;;;;;;10.35;6.70;;;15.10;99.90;;;;;;5014286;28;20109;-82
2022/05/11 04:31:05;;;;;;;10.38;6.38;;;15.30;99.90;;;;;;5014376;28;20169;-80
2022/05/11 04:33:51;;;;;;;12.32;7.25;;;15.40;99.90;;;;;;4999434;28;20048;-81
2022/05/11 04:36:39;;;;;;;20.25;8.23;;;15.50;99.90;;;;;;5014444;28;20064;-82
2022/05/11 04:39:25;;;;;;;10.35;6.25;;;15.70;99.90;;;;;;5014037;28;20135;-78
2022/05/11 04:42:12;;;;;;;9.93;6.43;;;15.50;99.90;;;;;;4999687;28;20173;-84
2022/05/11 04:44:58;;;;;;;83.05;48.75;;;15.60;99.90;;;;;;5000213;28;20068;-80
2022/05/11 04:47:44;;;;;;;74.68;45.15;;;16.10;99.90;;;;;;5000229;28;20057;-80
2022/05/11 04:50:30;;;;;;;35.08;21.80;;;16.20;99.90;;;;;;5014816;28;20524;-79
2022/05/11 04:53:17;;;;;;;13.45;8.18;;;16.30;99.90;;;;;;5014449;28;20108;-80
2022/05/11 04:56:03;;;;;;;15.98;9.20;;;16.30;99.90;;;;;;5014548;28;20053;-81
2022/05/11 04:58:50;;;;;;;11.30;6.97;;;16.30;99.90;;;;;;5014252;28;20053;-77
2022/05/11 05:01:36;;;;;;;11.18;7.10;;;16.40;99.90;;;;;;5000264;28;20052;-78
2022/05/11 05:04:22;;;;;;;16.10;7.40;;;16.10;99.90;;;;;;4999643;28;20180;-78
2022/05/11 05:07:08;;;;;;;46.35;26.15;;;16.10;99.90;;;;;;4997142;28;20096;-80
2022/05/11 05:09:54;;;;;;;85.05;50.65;;;16.20;99.90;;;;;;5013039;28;20060;-75
2022/05/11 05:12:43;;;;;;;137.63;82.53;;;16.10;99.90;;;;;;5013963;28;20136;-74
2022/05/11 05:15:29;;;;;;;37.25;24.52;;;16.00;99.90;;;;;;5013319;28;20049;-79
2022/05/11 05:18:15;;;;;;;13.10;9.32;;;16.20;99.90;;;;;;5012629;28;20060;-77
2022/05/11 05:21:01;;;;;;;12.50;8.13;;;16.10;99.90;;;;;;4994009;28;20052;-77
2022/05/11 05:23:47;;;;;;;18.67;6.85;;;16.10;99.90;;;;;;5009115;28;20172;-76
2022/05/11 05:26:33;;;;;;;13.13;7.68;;;16.00;99.90;;;;;;4998570;28;20092;-79
2022/05/11 05:32:25;;;;;;;10.77;6.82;;;16.20;99.90;;;;;;4978449;28;20045;-75
2022/05/11 05:35:16;;;;;;;11.20;6.88;;;16.10;99.90;;;;;;4993720;28;20144;-79
2022/05/11 05:38:04;;;;;;;11.15;7.15;;;16.20;99.90;;;;;;4994380;28;20473;-81
2022/05/11 05:40:50;;;;;;;10.65;5.80;;;16.30;99.90;;;;;;4994861;28;20061;-75
2022/05/11 05:43:37;;;;;;;10.63;6.47;;;16.10;99.90;;;;;;4994821;28;20049;-87
2022/05/11 05:46:24;;;;;;;11.45;6.30;;;16.30;99.90;;;;;;4995255;28;20081;-89
2022/05/11 05:49:10;;;;;;;22.73;13.80;;;16.40;99.90;;;;;;4996260;28;20065;-85
2022/05/11 05:51:58;;;;;;;23.60;14.77;;;16.50;99.90;;;;;;4996411;28;20142;-89
2022/05/11 05:54:45;;;;;;;12.38;6.55;;;16.40;99.90;;;;;;4995004;28;20402;-79
2022/05/11 05:57:31;;;;;;;13.07;7.65;;;16.30;99.90;;;;;;4995010;28;20057;-91
2022/05/11 06:00:17;;;;;;;10.77;6.90;;;16.60;99.90;;;;;;4995509;28;20069;-87
2022/05/11 06:03:04;;;;;;;9.55;6.20;;;16.70;99.90;;;;;;4994898;28;20045;-90
2022/05/11 06:05:50;;;;;;;10.35;6.53;;;16.70;99.90;;;;;;4992947;28;20057;-83
2022/05/11 06:08:37;;;;;;;11.23;6.63;;;16.70;99.90;;;;;;4993813;28;20057;-88
2022/05/11 06:11:22;;;;;;;11.40;6.75;;;16.70;99.90;;;;;;4993072;28;20060;-86
2022/05/11 06:14:09;;;;;;;11.85;6.65;;;16.80;99.90;;;;;;4994601;28;20050;-79
2022/05/11 06:16:55;;;;;;;12.48;6.72;;;16.90;99.90;;;;;;4994335;28;20137;-79
2022/05/11 06:19:40;;;;;;;10.73;6.00;;;16.80;99.90;;;;;;4993822;28;20409;-80
2022/05/11 06:22:27;;;;;;;8.30;5.85;;;16.80;99.90;;;;;;4993798;28;20053;-84
2022/05/11 06:25:14;;;;;;;12.77;6.00;;;16.80;99.90;;;;;;4994547;28;20153;-85
2022/05/11 06:28:00;;;;;;;9.77;6.53;;;17.00;99.90;;;;;;4994702;28;20523;-85
2022/05/11 06:30:47;;;;;;;8.23;5.75;;;17.30;99.90;;;;;;4999314;28;20100;-86
2022/05/11 06:33:33;;;;;;;9.60;5.38;;;17.20;99.90;;;;;;5013627;28;20057;-81
2022/05/11 06:36:23;;;;;;;7.97;5.30;;;17.20;99.90;;;;;;5013648;28;20521;-77
2022/05/11 06:39:09;;;;;;;14.68;6.25;;;17.30;99.90;;;;;;5013757;28;20046;-79
2022/05/11 06:42:01;;;;;;;10.52;5.65;;;17.10;99.90;;;;;;5000305;28;20056;-88
2022/05/11 06:44:48;;;;;;;10.65;6.00;;;17.00;99.90;;;;;;5018968;28;20045;-92
2022/05/11 06:47:34;;;;;;;9.55;5.80;;;17.20;99.90;;;;;;5014163;28;20154;-92
2022/05/11 06:50:28;;;;;;;9.88;6.13;;;17.20;99.90;;;;;;5013489;28;20052;-83
2022/05/11 06:59:20;;;;;;;13.65;6.18;;;17.30;99.90;;;;;;5012727;28;20069;-85
2022/05/11 06:59:34;;;;;;;10.90;5.72;;;18.00;99.90;;;;;;5013959;28;20072;-90
2022/05/11 07:02:20;;;;;;;10.45;5.50;;;18.20;99.90;;;;;;5014197;28;20049;-86
2022/05/11 07:05:08;;;;;;;10.30;5.32;;;18.00;99.90;;;;;;5013986;28;20056;-91
2022/05/11 07:07:53;;;;;;;11.80;5.97;;;18.00;99.90;;;;;;5013013;28;20088;-80
2022/05/11 07:10:42;;;;;;;17.27;6.05;;;18.30;99.90;;;;;;5013151;28;20599;-80
2022/05/11 07:13:30;;;;;;;11.68;5.70;;;18.50;99.90;;;;;;5013528;28;20041;-82
2022/05/11 07:16:18;;;;;;;17.15;6.10;;;18.60;99.90;;;;;;5013290;28;20057;-74
2022/05/11 07:19:05;;;;;;;11.13;6.30;;;18.60;99.90;;;;;;5012855;28;20045;-93
2022/05/11 07:21:52;;;;;;;14.63;6.55;;;18.70;99.90;;;;;;5013669;28;20100;-77
2022/05/11 07:24:38;;;;;;;15.95;7.28;;;18.80;99.90;;;;;;5012906;28;20632;-87
2022/05/11 07:27:24;;;;;;;13.75;6.80;;;18.80;99.90;;;;;;5013541;28;20048;-80
2022/05/11 07:30:19;;;;;;;21.65;6.20;;;19.00;99.90;;;;;;5013589;28;20057;-80
2022/05/11 07:33:05;;;;;;;10.95;6.32;;;19.00;99.90;;;;;;5017066;28;20135;-91
2022/05/11 07:35:51;;;;;;;13.05;5.95;;;19.10;99.90;;;;;;5011580;28;20064;-86
2022/05/11 07:38:39;;;;;;;12.27;5.85;;;19.10;99.90;;;;;;5021887;28;20543;-87
2022/05/11 07:41:25;;;;;;;11.98;6.78;;;19.10;99.90;;;;;;5016077;28;20167;-82
2022/05/11 07:44:11;;;;;;;12.70;6.47;;;19.10;99.90;;;;;;5002034;28;20393;-79
2022/05/11 07:46:57;;;;;;;15.50;7.57;;;18.90;99.90;;;;;;5016152;28;20060;-77
2022/05/11 07:49:43;;;;;;;10.63;5.50;;;19.00;99.90;;;;;;4983276;28;20047;-81
2022/05/11 07:52:29;;;;;;;14.18;6.25;;;19.30;99.90;;;;;;5012770;28;20060;-87
2022/05/11 07:55:17;;;;;;;13.18;5.78;;;19.50;99.90;;;;;;5001451;28;20060;-92
2022/05/11 08:01:07;;;;;;;13.10;5.18;;;19.40;99.00;;;;;;5015092;28;20125;-80
2022/05/11 08:03:53;;;;;;;15.85;5.82;;;19.30;99.20;;;;;;5016774;28;20056;-85
2022/05/11 08:06:39;;;;;;;15.27;6.47;;;19.50;99.10;;;;;;5015999;28;20060;-86
2022/05/11 08:09:25;;;;;;;17.85;5.70;;;19.50;99.60;;;;;;5002335;28;20061;-84
2022/05/11 08:12:11;;;;;;;11.38;6.15;;;19.70;98.50;;;;;;5002765;28;20044;-77
2022/05/11 08:14:57;;;;;;;12.55;6.00;;;19.90;98.80;;;;;;5016877;28;20139;-78
2022/05/11 08:17:46;;;;;;;14.25;5.90;;;20.00;98.10;;;;;;5016415;28;20053;-84
2022/05/11 08:20:38;;;;;;;23.50;6.78;;;19.90;98.10;;;;;;5015955;28;20524;-85
2022/05/11 08:23:25;;;;;;;10.57;5.75;;;19.80;97.50;;;;;;5016963;28;20531;-83
2022/05/11 08:26:11;;;;;;;10.15;5.00;;;19.80;97.50;;;;;;5016577;28;20176;-89
2022/05/11 08:28:57;;;;;;;11.90;4.65;;;19.90;95.80;;;;;;5016390;28;20131;-87
2022/05/11 08:34:47;;;;;;;8.63;5.00;;;20.20;96.10;;;;;;5015434;28;20049;-90
2022/05/11 08:37:33;;;;;;;14.07;5.43;;;20.40;96.80;;;;;;5001216;28;20061;-90
2022/05/11 08:40:37;;;;;;;12.25;5.20;;;20.50;96.50;;;;;;5015367;28;20045;-79
2022/05/11 08:43:28;;;;;;;9.40;4.88;;;20.50;95.70;;;;;;5000161;28;20053;-90
2022/05/11 08:46:23;;;;;;;10.27;5.68;;;20.50;94.10;;;;;;5015482;28;20053;-82
2022/05/11 08:50:04;;;;;;;7.90;4.82;;;20.40;94.70;;;;;;5015198;28;20048;-79
2022/05/11 08:53:00;;;;;;;8.48;4.78;;;20.50;94.30;;;;;;4983679;28;20077;-85
2022/05/11 08:55:50;;;;;;;10.90;5.47;;;20.70;94.30;;;;;;5014559;28;20045;-86
2022/05/11 08:58:55;;;;;;;14.68;5.60;;;20.80;93.90;;;;;;5000455;28;20488;-88
2022/05/11 09:02:05;;;;;;;8.52;4.93;;;21.10;93.90;;;;;;5015298;28;20181;-85
2022/05/11 09:04:56;;;;;;;;;;;21.00;91.30;;;;;;5012172;28;20053;-89
2022/05/11 09:07:49;;;;;;;18.00;4.70;;;21.00;91.00;;;;;;5001560;28;19929;-76
2022/05/11 09:10:41;;;;;;;7.20;4.32;;;21.30;91.30;;;;;;5013241;28;20088;-76
2022/05/11 09:13:28;;;;;;;10.10;4.95;;;21.40;90.40;;;;;;5012735;28;20065;-85
2022/05/11 09:16:23;;;;;;;8.88;5.60;;;21.50;90.60;;;;;;4996190;28;20057;-84
2022/05/11 09:19:10;;;;;;;10.93;4.47;;;21.60;90.10;;;;;;5010941;28;20049;-85
2022/05/11 09:22:14;;;;;;;7.60;4.88;;;21.60;87.90;;;;;;5013671;28;20041;-75
2022/05/11 09:25:13;;;;;;;11.35;7.60;;;21.60;88.60;;;;;;4997998;28;20052;-76
2022/05/11 09:28:21;;;;;;;8.35;4.30;;;21.80;89.70;;;;;;5017141;28;20105;-75
2022/05/11 09:31:24;;;;;;;7.57;4.43;;;21.90;90.10;;;;;;5011464;28;20128;-90
2022/05/11 09:34:14;;;;;;;8.55;4.43;;;22.20;89.60;;;;;;5013479;28;20056;-81
2022/05/11 09:37:31;;;;;;;6.68;4.00;;;22.40;88.70;;;;;;5014246;28;20060;-75
2022/05/11 09:40:23;;;;;;;9.82;3.90;;;22.50;87.50;;;;;;5011185;28;20053;-80
2022/05/11 09:43:11;;;;;;;11.10;3.67;;;22.50;85.20;;;;;;4992153;28;20065;-77
2022/05/11 09:45:58;;;;;;;10.55;4.28;;;22.50;86.50;;;;;;5014582;28;20049;-73
2022/05/11 09:49:09;;;;;;;7.15;3.97;;;22.60;82.30;;;;;;5009884;28;20100;-74
2022/05/11 09:51:58;;;;;;;6.90;4.03;;;22.60;83.90;;;;;;5000837;28;20069;-74
2022/05/11 09:54:46;;;;;;;5.63;3.42;;;22.80;81.10;;;;;;5002454;28;20424;-76
2022/05/11 09:57:33;;;;;;;10.32;3.72;;;22.80;81.70;;;;;;5020592;28;20061;-77
2022/05/11 10:00:44;;;;;;;8.27;5.13;;;22.50;81.50;;;;;;5019768;28;20065;-76
2022/05/11 10:03:30;;;;;;;7.68;4.40;;;22.70;82.40;;;;;;5010858;28;20052;-75
2022/05/11 10:06:20;;;;;;;10.68;4.35;;;23.30;81.80;;;;;;5012705;28;20574;-76
2022/05/11 10:09:07;;;;;;;7.25;3.80;;;23.30;79.10;;;;;;5013128;28;20413;-76
2022/05/11 10:11:53;;;;;;;6.90;3.88;;;23.10;79.70;;;;;;5012546;28;20064;-77
2022/05/11 10:21:56;;;;;;;7.35;3.72;;;23.30;79.00;;;;;;5020796;28;20052;-78
2022/05/11 10:25:06;;;;;;;11.45;3.85;;;23.30;77.70;;;;;;4975278;28;20049;-84
2022/05/11 10:28:38;;;;;;;9.73;5.65;;;23.30;78.70;;;;;;5013162;28;20052;-87
2022/05/11 10:31:26;;;;;;;9.35;5.03;;;23.30;77.90;;;;;;4970835;28;20521;-79
2022/05/11 10:34:20;;;;;;;6.43;4.03;;;23.50;78.30;;;;;;4993434;28;20057;-85
2022/05/11 10:37:21;;;;;;;7.35;4.00;;;23.70;76.10;;;;;;4994657;28;20068;-80
2022/05/11 10:40:25;;;;;;;;;;;23.90;76.80;;;;;;5014129;28;20049;-89
2022/05/11 10:43:26;;;;;;;8.90;3.92;;;23.90;75.40;;;;;;5014279;28;19927;-88
2022/05/11 10:46:49;;;;;;;;;;;24.30;75.00;;;;;;5003080;28;20045;-84
2022/05/11 10:49:43;;;;;;;8.18;4.15;;;23.90;73.30;;;;;;5013339;28;19928;-84
2022/05/11 10:52:32;;;;;;;8.40;4.22;;;24.20;74.60;;;;;;5012694;28;20416;-86
2022/05/11 10:55:26;;;;;;;8.00;4.00;;;24.20;71.80;;;;;;5007959;28;20057;-78
2022/05/11 10:58:18;;;;;;;6.25;3.67;;;23.80;72.60;;;;;;5004235;28;20072;-81
2022/05/11 11:01:16;;;;;;;8.32;4.43;;;23.90;71.40;;;;;;5010936;28;20045;-75
2022/05/11 11:04:14;;;;;;;7.63;4.13;;;24.30;71.10;;;;;;4995912;28;20048;-75
2022/05/11 11:07:11;;;;;;;12.15;4.07;;;24.50;70.80;;;;;;4998993;28;20076;-74
2022/05/11 11:10:06;;;;;;;8.48;4.10;;;24.90;69.80;;;;;;5015583;28;20045;-74
2022/05/11 11:13:09;;;;;;;8.80;4.25;;;25.00;69.40;;;;;;5015388;28;20056;-75
2022/05/11 11:15:57;;;;;;;8.10;4.00;;;25.10;69.40;;;;;;5015428;28;20045;-81
2022/05/11 11:18:49;;;;;;;8.00;4.60;;;25.30;71.10;;;;;;5001276;28;20052;-72
2022/05/11 11:21:41;;;;;;;9.23;3.80;;;25.40;69.90;;;;;;5015560;28;20069;-77
2022/05/11 11:24:28;;;;;;;8.93;4.43;;;25.40;69.40;;;;;;5015638;28;20052;-75
2022/05/11 11:27:14;;;;;;;7.80;4.10;;;25.60;70.00;;;;;;5015476;28;20044;-81
2022/05/11 11:30:19;;;;;;;12.00;5.15;;;25.50;68.80;;;;;;4987324;28;20064;-74
2022/05/11 11:33:12;;;;;;;7.65;4.30;;;25.80;68.50;;;;;;5014966;28;20052;-74
2022/05/11 11:36:04;;;;;;;9.70;4.20;;;25.90;66.70;;;;;;5015899;28;20436;-75
2022/05/11 11:38:52;;;;;;;8.95;4.40;;;25.90;67.70;;;;;;5014957;28;20648;-72
2022/05/11 11:41:41;;;;;;;10.00;4.32;;;25.60;66.70;;;;;;5000869;28;20048;-74
2022/05/11 11:44:35;;;;;;;8.82;4.50;;;25.70;66.80;;;;;;5014840;28;20064;-73
2022/05/11 11:47:26;;;;;;;8.63;3.65;;;25.80;64.30;;;;;;5015115;28;20053;-81
2022/05/11 11:50:47;;;;;;;7.35;4.20;;;26.10;63.40;;;;;;5016130;28;20056;-73
2022/05/11 11:53:56;;;;;;;9.15;4.88;;;26.30;63.30;;;;;;5014858;28;20068;-73
2022/05/11 11:56:47;;;;;;;9.50;4.30;;;26.40;64.40;;;;;;5015011;28;20056;-80
2022/05/11 11:59:36;;;;;;;10.07;4.55;;;26.10;64.30;;;;;;5015037;28;20164;-78
2022/05/11 12:02:30;;;;;;;8.38;4.35;;;25.90;64.50;;;;;;5014676;28;20446;-78
2022/05/11 12:05:37;;;;;;;8.43;4.40;;;25.70;64.90;;;;;;4988240;28;20425;-73
2022/05/11 12:15:05;;;;;;;10.23;4.70;;;25.50;64.00;;;;;;4996660;28;20053;-75
2022/05/11 12:18:27;;;;;;;6.38;3.78;;;25.60;65.30;;;;;;4998946;28;20103;-84
2022/05/11 12:21:52;;;;;;;11.32;4.70;;;25.70;64.30;;;;;;4985789;28;20132;-77
2022/05/11 12:24:41;;;;;;;10.07;4.25;;;26.00;65.80;;;;;;4999427;28;20100;-77
2022/05/11 12:27:31;;;;;;;7.75;3.72;;;26.60;64.40;;;;;;4999436;28;20057;-79
2022/05/11 12:30:17;;;;;;;8.57;3.75;;;26.90;61.10;;;;;;5013497;28;20184;-81
2022/05/11 12:33:05;;;;;;;7.53;3.90;;;26.70;61.60;;;;;;5014016;28;20488;-77
2022/05/11 12:35:52;;;;;;;5.88;3.67;;;26.70;61.60;;;;;;4999258;28;20801;-80
2022/05/11 12:38:40;;;;;;;12.25;4.40;;;26.50;61.90;;;;;;4998757;28;20116;-81
2022/05/11 12:41:29;;;;;;;8.77;5.38;;;26.40;62.50;;;;;;4999863;28;20056;-74
2022/05/11 12:44:15;;;;;;;6.72;3.60;;;26.60;61.40;;;;;;5013993;28;20112;-83
2022/05/11 12:47:04;;;;;;;9.68;4.32;;;26.80;60.70;;;;;;5014316;28;20185;-82
2022/05/11 12:49:50;;;;;;;7.93;4.43;;;26.70;60.60;;;;;;5013738;28;20123;-76
2022/05/11 12:52:36;;;;;;;8.77;4.00;;;27.10;61.10;;;;;;4999674;28;20077;-84
2022/05/11 12:55:34;;;;;;;9.07;3.97;;;27.50;61.00;;;;;;4998964;28;20053;-84
2022/05/11 12:58:28;;;;;;;8.20;3.38;;;27.60;60.20;;;;;;4999110;28;20077;-82
2022/05/11 13:01:17;;;;;;;6.93;4.13;;;27.40;59.50;;;;;;4998968;28;20385;-83
2022/05/11 13:04:16;;;;;;;6.20;3.55;;;27.70;59.00;;;;;;4998866;28;20056;-79
2022/05/11 13:07:03;;;;;;;8.02;3.88;;;27.80;58.70;;;;;;5013509;28;20179;-76
2022/05/11 13:09:52;;;;;;;6.85;4.00;;;28.20;58.80;;;;;;5012894;28;20147;-78
2022/05/11 13:12:39;;;;;;;6.97;3.70;;;27.90;58.30;;;;;;4998610;28;20192;-77
2022/05/11 13:15:45;;;;;;;6.22;3.40;;;27.70;58.60;;;;;;5013341;28;20048;-77
2022/05/11 13:18:33;;;;;;;11.02;3.47;;;27.80;59.20;;;;;;4998279;28;20066;-76
2022/05/11 13:21:35;;;;;;;8.50;3.63;;;27.20;57.20;;;;;;5013040;28;20457;-77
2022/05/11 13:24:45;;;;;;;11.73;3.72;;;26.80;57.90;;;;;;4998207;28;20064;-76
2022/05/11 13:27:41;;;;;;;7.63;3.55;;;26.90;58.90;;;;;;4998386;28;20424;-78
2022/05/11 13:30:31;;;;;;;9.00;5.72;;;27.10;57.90;;;;;;4997025;28;20045;-78
2022/05/11 13:33:43;;;;;;;9.02;4.53;;;27.70;58.60;;;;;;5013125;28;20057;-77
2022/05/11 13:36:40;;;;;;;5.60;3.30;;;27.40;57.60;;;;;;5012729;28;20096;-77
2022/05/11 13:39:32;;;;;;;7.93;3.97;;;27.70;58.00;;;;;;4997327;28;20049;-79
2022/05/11 13:42:26;;;;;;;10.65;4.70;;;27.90;57.20;;;;;;4998106;28;20099;-77
2022/05/11 13:45:12;;;;;;;12.35;4.13;;;28.30;57.70;;;;;;4997596;28;20139;-77
2022/05/11 13:48:11;;;;;;;10.75;3.67;;;27.70;56.70;;;;;;5012433;28;20508;-76
2022/05/11 13:51:20;;;;;;;8.05;4.45;;;26.60;56.50;;;;;;4997657;28;20149;-78
2022/05/11 13:54:51;;;;;;;7.70;3.78;;;26.50;56.90;;;;;;4997744;28;20049;-77
2022/05/11 13:57:39;;;;;;;10.50;3.75;;;26.70;56.50;;;;;;4937873;29;20054;-77
2022/05/11 14:00:26;;;;;;;8.85;4.03;;;27.00;57.80;;;;;;4938036;29;20159;-79
2022/05/11 14:03:15;;;;;;;6.05;3.25;;;27.30;58.10;;;;;;4993766;28;20065;-80
2022/05/11 14:06:11;;;;;;;6.78;4.40;;;28.20;57.20;;;;;;5012569;28;20052;-81
2022/05/11 14:08:58;;;;;;;6.90;4.03;;;28.30;56.90;;;;;;4997164;28;20405;-81
2022/05/11 14:11:44;;;;;;;6.68;3.50;;;28.10;57.30;;;;;;4997345;28;20060;-78
2022/05/11 14:14:33;;;;;;;8.27;4.78;;;27.90;56.90;;;;;;4997495;28;20413;-80
2022/05/11 14:17:27;;;;;;;7.78;5.22;;;28.20;56.60;;;;;;4998049;28;20053;-79
2022/05/11 14:20:19;;;;;;;7.93;3.80;;;28.10;56.80;;;;;;5011699;28;20056;-82
2022/05/11 14:23:06;;;;;;;7.25;3.45;;;27.90;56.20;;;;;;4997531;28;20531;-79
2022/05/11 14:25:52;;;;;;;6.65;4.13;;;27.70;55.30;;;;;;4998331;28;20475;-80
2022/05/11 14:28:40;;;;;;;8.10;3.78;;;27.80;55.40;;;;;;5012409;28;20428;-80
2022/05/11 14:31:31;;;;;;;6.82;4.03;;;27.90;55.30;;;;;;4997467;28;20057;-81
2022/05/11 14:34:25;;;;;;;7.20;3.63;;;28.20;55.80;;;;;;4997539;28;20905;-83
2022/05/11 14:37:11;;;;;;;7.55;3.88;;;28.20;55.00;;;;;;5011472;28;20111;-81
2022/05/11 14:40:01;;;;;;;9.10;4.25;;;28.80;56.80;;;;;;5011653;28;20083;-83
2022/05/11 14:42:48;;;;;;;7.50;3.92;;;29.00;56.10;;;;;;4996820;28;20061;-80
2022/05/11 14:45:36;;;;;;;10.23;4.40;;;29.20;56.10;;;;;;4996532;28;20048;-78
2022/05/11 14:48:31;;;;;;;8.02;3.63;;;28.70;55.00;;;;;;5012058;28;20053;-77
2022/05/11 14:51:17;;;;;;;11.13;5.47;;;29.00;55.80;;;;;;5011683;28;20131;-77
2022/05/11 14:54:04;;;;;;;10.00;4.80;;;29.40;55.30;;;;;;5011046;28;20107;-78
2022/05/11 15:01:55;;;;;;;9.68;3.47;;;29.80;55.70;;;;;;4996861;28;20061;-79
2022/05/11 15:03:01;;;;;;;9.68;3.25;;;29.90;52.90;;;;;;5011695;28;20122;-78
2022/05/11 15:05:48;;;;;;;7.40;3.88;;;29.40;53.00;;;;;;5011057;28;20184;-79
2022/05/11 15:08:34;;;;;;;8.68;3.97;;;29.20;51.70;;;;;;4995840;28;20053;-78
2022/05/11 15:15:14;;;;;;;8.98;3.65;;;29.70;53.90;;;;;;5011082;28;20053;-79
2022/05/11 15:18:40;;;;;;;54.08;48.33;;;28.90;53.60;;;;;;4991714;28;20053;-78
2022/05/11 15:21:39;;;;;;;18.50;16.27;;;29.40;53.40;;;;;;4997230;28;20045;-77
2022/05/11 15:24:26;;;;;;;24.50;21.13;;;29.30;53.80;;;;;;4996764;28;20119;-76